createdAt,value
2023-08-24T00:01:28.247Z,83.71
2023-08-24T00:06:31.346Z,83.58
2023-08-24T00:11:34.231Z,83.61
2023-08-24T00:16:37.519Z,83.80
2023-08-24T00:21:40.539Z,83.88
2023-08-24T00:26:43.353Z,84.14
2023-08-24T00:31:46.216Z,84.04
2023-08-24T00:36:49.392Z,84.24
2023-08-24T00:41:52.312Z,84.33
2023-08-24T00:46:55.583Z,84.50
2023-08-24T00:51:58.689Z,84.73
2023-08-24T00:57:01.547Z,84.89
2023-08-24T01:02:04.420Z,85.39
2023-08-24T01:07:08.138Z,85.75
2023-08-24T01:12:33.053Z,85.97
2023-08-24T01:17:36.467Z,86.37
2023-08-24T01:23:07.643Z,86.52
2023-08-24T01:28:10.581Z,86.65
2023-08-24T01:33:14.684Z,87.00
2023-08-24T01:38:17.579Z,87.10
2023-08-24T01:43:36.804Z,87.17
2023-08-24T01:48:45.695Z,87.30
2023-08-24T01:53:48.650Z,87.16
2023-08-24T01:58:51.512Z,87.01
2023-08-24T02:03:54.479Z,87.37
2023-08-24T02:08:58.733Z,87.52
2023-08-24T02:14:01.665Z,87.74
2023-08-24T02:19:04.528Z,87.97
2023-08-24T02:24:07.771Z,88.01
2023-08-24T02:29:10.913Z,88.18
2023-08-24T02:34:13.879Z,88.32
2023-08-24T02:39:17.345Z,88.52
2023-08-24T02:44:20.248Z,88.83
2023-08-24T02:49:23.225Z,89.04
2023-08-24T02:54:26.105Z,89.09
2023-08-24T02:59:28.982Z,89.29
2023-08-24T03:04:32.119Z,89.53
2023-08-24T03:09:37.826Z,89.93
2023-08-24T03:14:40.840Z,90.13
2023-08-24T03:19:43.764Z,90.05
2023-08-24T03:24:46.694Z,90.23
2023-08-24T03:29:49.561Z,90.28
2023-08-24T03:34:52.678Z,90.72
2023-08-24T03:39:55.740Z,90.74
2023-08-24T03:45:01.001Z,90.58
2023-08-24T03:50:04.608Z,90.75
2023-08-24T03:55:08.574Z,91.01
2023-08-24T04:00:12.588Z,90.62
2023-08-24T04:05:15.640Z,91.06
2023-08-24T04:10:18.548Z,91.62
2023-08-24T04:15:21.818Z,91.73
2023-08-24T04:20:24.679Z,91.85
2023-08-24T04:25:27.503Z,91.80
2023-08-24T04:30:30.530Z,91.79
2023-08-24T04:35:37.121Z,92.21
2023-08-24T04:40:51.949Z,92.14
2023-08-24T04:45:55.699Z,92.05
2023-08-24T04:50:58.939Z,92.04
2023-08-24T04:56:01.818Z,92.02
2023-08-24T05:01:05.245Z,92.05
2023-08-24T05:06:08.088Z,92.13
2023-08-24T05:11:18.035Z,91.83
2023-08-24T05:16:21.074Z,92.07
2023-08-24T05:21:24.022Z,91.93
2023-08-24T05:26:26.904Z,91.90
2023-08-24T05:31:29.822Z,91.79
2023-08-24T05:36:32.706Z,91.62
2023-08-24T05:41:36.044Z,91.49
2023-08-24T05:46:38.911Z,91.24
2023-08-24T05:51:41.907Z,91.22
2023-08-24T05:56:44.908Z,91.12
2023-08-24T06:01:47.813Z,91.08
2023-08-24T06:06:50.758Z,91.04
2023-08-24T06:11:53.676Z,90.72
2023-08-24T06:16:57.146Z,89.90
2023-08-24T06:21:59.996Z,87.04
2023-08-24T06:27:03.075Z,84.92
2023-08-24T06:32:06.163Z,82.01
2023-08-24T06:37:09.014Z,80.20
2023-08-24T06:42:12.022Z,78.42
2023-08-24T06:47:16.033Z,76.62
2023-08-24T06:52:19.347Z,74.10
2023-08-24T06:57:22.450Z,74.52
2023-08-24T07:02:25.309Z,73.05
2023-08-24T07:07:28.341Z,71.91
2023-08-24T07:12:31.541Z,71.64
2023-08-24T07:17:34.594Z,69.39
2023-08-24T07:22:37.492Z,69.14
2023-08-24T07:27:40.336Z,68.90
2023-08-24T07:32:43.309Z,67.80
2023-08-24T07:37:46.241Z,66.73
2023-08-24T07:42:55.853Z,64.46
2023-08-24T07:47:58.831Z,64.02
2023-08-24T07:53:01.726Z,64.32
2023-08-24T07:58:05.292Z,63.22
2023-08-24T08:03:08.246Z,61.24
2023-08-24T08:08:11.376Z,59.87
2023-08-24T08:13:14.332Z,59.57
2023-08-24T08:18:17.542Z,58.90
2023-08-24T08:23:20.577Z,57.18
2023-08-24T08:28:23.580Z,57.88
2023-08-24T08:33:26.477Z,56.15
2023-08-24T08:38:29.452Z,55.57
2023-08-24T08:43:32.442Z,53.64
2023-08-24T08:48:35.680Z,54.25
2023-08-24T08:53:38.616Z,54.08
2023-08-24T08:58:44.641Z,54.52
2023-08-24T09:03:47.636Z,51.77
2023-08-24T09:08:51.720Z,49.12
2023-08-24T09:13:54.692Z,49.03
2023-08-24T09:18:57.566Z,49.25
2023-08-24T09:24:00.497Z,48.42
2023-08-24T09:29:14.343Z,47.86
2023-08-24T09:34:24.286Z,44.62
2023-08-24T09:39:27.216Z,43.95
2023-08-24T09:44:30.110Z,45.22
2023-08-24T09:49:32.980Z,45.48
2023-08-24T09:54:39.240Z,44.48
2023-08-24T09:59:42.137Z,44.22
2023-08-24T10:04:45.012Z,44.17
2023-08-24T10:10:04.878Z,43.31
2023-08-24T10:15:14.471Z,42.15
2023-08-24T10:20:17.734Z,40.38
2023-08-24T10:25:20.633Z,41.89
2023-08-24T10:30:23.662Z,39.56
2023-08-24T10:35:28.202Z,39.72
2023-08-24T10:40:34.982Z,39.78
2023-08-24T10:46:01.419Z,39.28
2023-08-24T10:51:27.951Z,37.15
2023-08-24T10:56:39.885Z,38.30
2023-08-24T11:01:45.097Z,37.38
2023-08-24T11:07:03.355Z,36.67
2023-08-24T11:12:06.553Z,33.70
2023-08-24T11:17:20.123Z,33.02
2023-08-24T11:22:23.148Z,31.04
2023-08-24T11:27:25.998Z,31.49
2023-08-24T11:32:28.931Z,30.58
2023-08-24T11:37:31.971Z,29.67
2023-08-24T11:42:37.681Z,29.40
2023-08-24T11:47:40.643Z,28.23
2023-08-24T11:52:43.950Z,27.66
2023-08-24T11:57:46.838Z,26.62
2023-08-24T12:02:49.978Z,26.27
2023-08-24T12:07:55.978Z,27.41
2023-08-24T12:13:05.579Z,26.68
2023-08-24T12:18:12.831Z,26.38
2023-08-24T12:23:15.851Z,27.48
2023-08-24T12:28:18.817Z,26.11
2023-08-24T12:33:23.933Z,25.85
2023-08-24T12:38:27.578Z,24.60
2023-08-24T12:43:30.543Z,22.36
2023-08-24T12:48:33.687Z,22.69
2023-08-24T12:53:36.687Z,23.85
2023-08-24T12:58:39.668Z,23.39
2023-08-24T13:03:42.491Z,23.01
2023-08-24T13:08:45.493Z,21.16
2023-08-24T13:13:48.349Z,21.15
2023-08-24T13:18:51.275Z,22.79
2023-08-24T13:23:54.155Z,24.05
2023-08-24T13:28:58.385Z,22.95
2023-08-24T13:34:01.577Z,21.03
2023-08-24T13:39:05.938Z,21.06
2023-08-24T13:44:08.861Z,20.88
2023-08-24T13:49:12.976Z,20.00
2023-08-24T13:54:18.493Z,20.37
2023-08-24T13:59:22.262Z,21.35
2023-08-24T14:04:25.122Z,21.20
2023-08-24T14:09:28.177Z,20.18
2023-08-24T14:14:31.578Z,21.40
2023-08-24T14:19:34.578Z,20.70
2023-08-24T14:24:37.576Z,20.06
2023-08-24T14:29:40.441Z,19.77
2023-08-24T14:34:44.571Z,19.51
2023-08-24T14:39:47.473Z,19.76
2023-08-24T14:44:50.381Z,22.83
2023-08-24T14:49:54.593Z,23.96
2023-08-24T14:54:57.461Z,25.59
2023-08-24T15:00:00.420Z,26.73
2023-08-24T15:05:05.361Z,28.49
2023-08-24T15:10:08.594Z,31.09
2023-08-24T15:15:11.524Z,31.12
2023-08-24T15:20:14.619Z,31.67
2023-08-24T15:25:17.694Z,32.86
2023-08-24T15:30:20.961Z,33.45
2023-08-24T15:35:24.109Z,33.86
2023-08-24T15:40:30.925Z,35.32
2023-08-24T15:45:34.077Z,37.00
2023-08-24T15:50:37.312Z,36.34
2023-08-24T15:55:40.144Z,37.00
2023-08-24T16:00:43.172Z,37.31
2023-08-24T16:05:46.166Z,38.42
2023-08-24T16:10:50.677Z,38.79
2023-08-24T16:15:53.937Z,39.47
2023-08-24T16:20:57.019Z,40.16
2023-08-24T16:26:00.046Z,39.56
2023-08-24T16:31:03.779Z,39.53
2023-08-24T16:36:07.619Z,39.49
2023-08-24T16:41:10.568Z,40.04
2023-08-24T16:46:13.713Z,40.86
2023-08-24T16:51:16.820Z,41.28
2023-08-24T16:56:19.996Z,42.65
2023-08-24T17:01:22.856Z,44.04
2023-08-24T17:06:25.940Z,45.39
2023-08-24T17:11:28.907Z,46.85
2023-08-24T17:16:31.960Z,47.89
2023-08-24T17:21:35.360Z,48.27
2023-08-24T17:26:39.232Z,47.39
2023-08-24T17:31:43.278Z,47.42
2023-08-24T17:36:46.229Z,48.97
2023-08-24T17:41:49.335Z,50.02
2023-08-24T17:46:52.254Z,51.49
2023-08-24T17:51:55.284Z,52.88
2023-08-24T17:56:58.171Z,54.24
2023-08-24T18:02:01.064Z,55.40
2023-08-24T18:07:04.106Z,56.59
2023-08-24T18:12:08.837Z,57.66
2023-08-24T18:17:12.014Z,59.29
2023-08-24T18:22:15.355Z,60.62
2023-08-24T18:27:18.248Z,61.83
2023-08-24T18:32:21.413Z,61.41
2023-08-24T18:37:25.424Z,61.94
2023-08-24T18:42:28.283Z,62.84
2023-08-24T18:47:31.284Z,64.51
2023-08-24T18:52:34.232Z,64.71
2023-08-24T18:57:37.124Z,66.24
2023-08-24T19:02:40.408Z,66.33
2023-08-24T19:07:43.346Z,67.42
2023-08-24T19:12:49.591Z,68.38
2023-08-24T19:17:53.829Z,68.98
2023-08-24T19:22:57.011Z,69.55
2023-08-24T19:27:59.855Z,69.76
2023-08-24T19:33:02.932Z,70.11
2023-08-24T19:38:06.155Z,71.20
2023-08-24T19:43:09.137Z,71.96
2023-08-24T19:48:12.167Z,72.56
2023-08-24T19:53:15.154Z,72.66
2023-08-24T19:58:18.081Z,73.26
2023-08-24T20:03:20.995Z,73.02
2023-08-24T20:08:28.322Z,73.26
2023-08-24T20:13:31.353Z,74.26
2023-08-24T20:18:34.361Z,74.83
2023-08-24T20:23:41.645Z,75.49
2023-08-24T20:28:44.751Z,76.09
2023-08-24T20:33:47.753Z,76.41
2023-08-24T20:38:50.769Z,76.64
2023-08-24T20:43:53.697Z,76.60
2023-08-24T20:48:56.741Z,77.50
2023-08-24T20:54:00.175Z,78.20
2023-08-24T20:59:04.844Z,79.14
2023-08-24T21:04:09.443Z,80.22
2023-08-24T21:09:13.091Z,80.94
2023-08-24T21:14:16.044Z,81.82
2023-08-24T21:19:19.056Z,82.47
2023-08-24T21:24:22.080Z,83.27
2023-08-24T21:29:25.856Z,83.17
2023-08-24T21:34:28.768Z,83.30
2023-08-24T21:39:31.606Z,83.39
2023-08-24T21:44:34.641Z,83.20
2023-08-24T21:49:37.530Z,83.02
2023-08-24T21:54:40.530Z,83.88
2023-08-24T21:59:44.802Z,83.88
2023-08-24T22:04:47.739Z,84.02
2023-08-24T22:09:50.642Z,85.03
2023-08-24T22:14:53.549Z,85.21
2023-08-24T22:19:56.524Z,84.95
2023-08-24T22:24:59.427Z,84.62
2023-08-24T22:30:05.089Z,85.65
2023-08-24T22:35:08.991Z,86.52
2023-08-24T22:40:12.066Z,86.50
2023-08-24T22:45:15.463Z,86.17
2023-08-24T22:50:18.501Z,86.37
2023-08-24T22:55:21.403Z,86.26
2023-08-24T23:00:24.324Z,86.47
2023-08-24T23:05:27.593Z,87.24
2023-08-24T23:10:30.618Z,87.94
2023-08-24T23:15:33.581Z,87.76
2023-08-24T23:20:36.588Z,88.31
2023-08-24T23:25:39.485Z,88.23
2023-08-24T23:30:42.362Z,88.43
2023-08-24T23:35:48.289Z,89.01
2023-08-24T23:40:51.129Z,88.93
2023-08-24T23:45:54.057Z,88.80
2023-08-24T23:50:56.921Z,89.23
2023-08-24T23:55:59.749Z,90.31
